createdAt,value
2019-02-25T00:00:00.746Z,1025.22
2019-02-25T00:05:01.158Z,1025.21
2019-02-25T00:10:00.740Z,1025.22
2019-02-25T00:15:00.625Z,1025.12
2019-02-25T00:20:00.662Z,1025.17
2019-02-25T00:25:01.093Z,1025.14
2019-02-25T00:30:01.054Z,1025.20
2019-02-25T00:35:00.588Z,1025.24
2019-02-25T00:40:00.631Z,1025.18
2019-02-25T00:45:01.638Z,1025.19
2019-02-25T00:50:00.682Z,1025.14
2019-02-25T00:55:00.835Z,1025.28
2019-02-25T01:00:00.638Z,1025.20
2019-02-25T01:05:00.750Z,1025.27
2019-02-25T01:10:02.028Z,1025.26
2019-02-25T01:15:00.879Z,1025.34
2019-02-25T01:20:01.394Z,1025.34
2019-02-25T01:25:01.152Z,1025.35
2019-02-25T01:30:00.677Z,1025.39
2019-02-25T01:35:01.300Z,1025.41
2019-02-25T01:40:01.324Z,1025.38
2019-02-25T01:45:02.310Z,1025.42
2019-02-25T01:50:01.305Z,1025.44
2019-02-25T01:55:00.658Z,1025.44
2019-02-25T02:00:01.068Z,1025.46
2019-02-25T02:05:01.189Z,1025.50
2019-02-25T02:10:00.664Z,1025.48
2019-02-25T02:15:00.644Z,1025.56
2019-02-25T02:20:00.710Z,1025.44
2019-02-25T02:25:03.063Z,1025.56
2019-02-25T02:30:00.746Z,1025.47
2019-02-25T02:35:00.666Z,1025.60
2019-02-25T02:40:00.842Z,1025.50
2019-02-25T02:45:00.643Z,1025.53
2019-02-25T02:50:01.096Z,1025.54
2019-02-25T02:55:01.344Z,1025.64
2019-02-25T03:00:00.748Z,1025.62
2019-02-25T03:05:00.911Z,1025.75
2019-02-25T03:10:00.843Z,1025.90
2019-02-25T03:15:01.278Z,1025.91
2019-02-25T03:20:00.896Z,1025.97
2019-02-25T03:25:01.239Z,1025.87
2019-02-25T03:30:00.655Z,1025.87
2019-02-25T03:35:00.683Z,1025.67
2019-02-25T03:40:00.750Z,1025.60
2019-02-25T03:45:02.598Z,1025.49
2019-02-25T03:50:00.906Z,1025.51
2019-02-25T03:55:00.717Z,1025.48
2019-02-25T04:00:00.768Z,1025.47
2019-02-25T04:05:00.719Z,1025.52
2019-02-25T04:10:00.900Z,1025.48
2019-02-25T04:15:00.862Z,1025.41
2019-02-25T04:20:02.247Z,1025.47
2019-02-25T04:25:01.432Z,1025.45
2019-02-25T04:30:01.038Z,1025.48
2019-02-25T04:35:00.732Z,1025.59
2019-02-25T04:40:00.977Z,1025.54
2019-02-25T04:45:00.988Z,1025.47
2019-02-25T04:50:01.879Z,1025.58
2019-02-25T04:55:01.166Z,1025.45
2019-02-25T05:00:00.759Z,1025.47
2019-02-25T05:05:01.630Z,1025.38
2019-02-25T05:10:01.144Z,1025.39
2019-02-25T05:15:01.019Z,1025.37
2019-02-25T05:20:01.408Z,1025.39
2019-02-25T05:25:01.310Z,1025.38
2019-02-25T05:30:00.989Z,1025.29
2019-02-25T05:35:00.893Z,1025.34
2019-02-25T05:40:00.842Z,1025.37
2019-02-25T05:45:01.652Z,1025.57
2019-02-25T05:50:01.167Z,1025.51
2019-02-25T05:55:01.157Z,1025.41
2019-02-25T06:00:01.182Z,1025.33
2019-02-25T06:05:01.092Z,1025.38
2019-02-25T06:10:00.941Z,1025.51
2019-02-25T06:15:01.319Z,1025.48
2019-02-25T06:20:01.054Z,1025.49
2019-02-25T06:25:02.924Z,1025.41
2019-02-25T06:30:01.244Z,1025.45
2019-02-25T06:35:00.814Z,1025.52
2019-02-25T06:40:01.010Z,1025.55
2019-02-25T06:45:00.916Z,1025.58
2019-02-25T06:50:00.870Z,1025.52
2019-02-25T06:55:00.997Z,1025.47
2019-02-25T07:00:01.315Z,1025.52
2019-02-25T07:05:02.793Z,1025.54
2019-02-25T07:10:00.942Z,1025.49
2019-02-25T07:15:00.880Z,1025.56
2019-02-25T07:20:00.884Z,1025.57
2019-02-25T07:25:01.008Z,1025.60
2019-02-25T07:30:01.309Z,1025.55
2019-02-25T07:35:00.957Z,1025.62
2019-02-25T07:40:01.368Z,1025.67
2019-02-25T07:45:01.098Z,1025.73
2019-02-25T07:50:01.497Z,1025.67
2019-02-25T07:55:01.407Z,1025.75
2019-02-25T08:00:00.861Z,1025.72
2019-02-25T08:05:01.004Z,1025.60
2019-02-25T08:10:00.868Z,1025.58
2019-02-25T08:15:01.291Z,1025.68
2019-02-25T08:20:00.911Z,1025.73
2019-02-25T08:25:01.192Z,1025.74
2019-02-25T08:30:02.385Z,1025.67
2019-02-25T08:35:00.955Z,1025.65
2019-02-25T08:40:01.020Z,1025.67
2019-02-25T08:45:00.919Z,1025.72
2019-02-25T08:50:01.300Z,1025.86
2019-02-25T08:55:01.051Z,1025.92
2019-02-25T09:00:01.157Z,1025.90
2019-02-25T09:05:00.947Z,1025.85
2019-02-25T09:10:01.538Z,1025.92
2019-02-25T09:15:01.291Z,1025.95
2019-02-25T09:20:01.390Z,1025.94
2019-02-25T09:25:01.444Z,1026.02
2019-02-25T09:30:01.056Z,1025.98
2019-02-25T09:35:01.818Z,1026.06
2019-02-25T09:40:01.113Z,1026.02
2019-02-25T09:45:01.115Z,1025.97
2019-02-25T09:50:00.974Z,1026.08
2019-02-25T09:55:01.362Z,1026.12
2019-02-25T10:00:01.964Z,1026.20
2019-02-25T10:05:01.811Z,1026.15
2019-02-25T10:10:01.235Z,1026.12
2019-02-25T10:15:01.082Z,1026.08
2019-02-25T10:20:00.996Z,1026.15
2019-02-25T10:25:01.338Z,1026.21
2019-02-25T10:30:01.014Z,1026.30
2019-02-25T10:35:00.992Z,1026.34
2019-02-25T10:40:01.032Z,1026.33
2019-02-25T10:45:02.703Z,1026.26
2019-02-25T10:50:03.135Z,1026.34
2019-02-25T10:55:01.258Z,1026.37
2019-02-25T11:00:02.815Z,1026.31
2019-02-25T11:05:01.136Z,1026.27
2019-02-25T11:10:01.237Z,1026.20
2019-02-25T11:15:01.100Z,1026.17
2019-02-25T11:20:03.329Z,1026.22
2019-02-25T11:25:01.448Z,1026.13
2019-02-25T11:30:01.413Z,1026.05
2019-02-25T11:35:01.846Z,1026.19
2019-02-25T11:40:02.608Z,1026.08
2019-02-25T11:45:02.410Z,1026.03
2019-02-25T11:50:01.471Z,1025.82
2019-02-25T11:55:01.267Z,1025.79
2019-02-25T12:00:01.212Z,1025.71
2019-02-25T12:05:01.238Z,1025.60
2019-02-25T12:10:01.612Z,1025.51
2019-02-25T12:15:01.075Z,1025.57
2019-02-25T12:20:01.108Z,1025.55
2019-02-25T12:25:01.293Z,1025.41
2019-02-25T12:30:01.510Z,1025.41
2019-02-25T12:35:01.072Z,1025.32
2019-02-25T12:40:03.946Z,1025.31
2019-02-25T12:45:01.156Z,1025.21
2019-02-25T12:50:01.154Z,1025.22
2019-02-25T12:55:01.263Z,1025.13
2019-02-25T13:00:01.281Z,1025.14
2019-02-25T13:05:01.668Z,1024.99
2019-02-25T13:10:01.230Z,1024.89
2019-02-25T13:15:01.070Z,1024.87
2019-02-25T13:20:01.084Z,1024.79
2019-02-25T13:25:03.155Z,1024.67
2019-02-25T13:30:01.126Z,1024.53
2019-02-25T13:35:03.410Z,1024.51
2019-02-25T13:40:01.277Z,1024.37
2019-02-25T13:45:02.051Z,1024.23
2019-02-25T13:50:01.194Z,1024.13
2019-02-25T13:55:01.195Z,1024.00
2019-02-25T14:00:01.552Z,1023.88
2019-02-25T14:05:01.465Z,1023.66
2019-02-25T14:10:01.406Z,1023.61
2019-02-25T14:15:01.862Z,1023.47
2019-02-25T14:20:02.465Z,1023.36
2019-02-25T14:25:03.633Z,1023.45
2019-02-25T14:30:02.490Z,1023.45
2019-02-25T14:35:02.113Z,1023.47
2019-02-25T14:40:04.141Z,1023.43
2019-02-25T14:45:03.705Z,1023.46
2019-02-25T14:50:01.282Z,1023.45
2019-02-25T14:55:03.798Z,1023.45
2019-02-25T15:00:01.145Z,1023.35
2019-02-25T15:05:01.996Z,1023.49
2019-02-25T15:10:02.500Z,1023.53
2019-02-25T15:15:02.694Z,1023.63
2019-02-25T15:20:01.136Z,1023.66
2019-02-25T15:25:02.543Z,1023.67
2019-02-25T15:30:01.162Z,1023.71
2019-02-25T15:35:01.495Z,1023.67
2019-02-25T15:40:01.194Z,1023.69
2019-02-25T15:45:01.474Z,1023.75
2019-02-25T15:50:03.760Z,1023.85
2019-02-25T15:55:01.953Z,1023.85
2019-02-25T16:00:01.259Z,1023.98
2019-02-25T16:05:03.052Z,1024.00
2019-02-25T16:10:03.912Z,1024.04
2019-02-25T16:15:01.095Z,1024.07
2019-02-25T16:20:01.580Z,1024.11
2019-02-25T16:25:03.122Z,1024.07
2019-02-25T16:30:03.043Z,1024.09
2019-02-25T16:35:02.699Z,1024.19
2019-02-25T16:40:03.102Z,1024.07
2019-02-25T16:45:03.553Z,1023.97
2019-02-25T16:50:01.615Z,1024.09
2019-02-25T16:55:01.862Z,1024.23
2019-02-25T17:00:02.493Z,1024.25
2019-02-25T17:05:01.110Z,1024.27
2019-02-25T17:10:01.746Z,1024.30
2019-02-25T17:15:01.577Z,1024.39
2019-02-25T17:20:01.083Z,1024.51
2019-02-25T17:25:03.428Z,1024.51
2019-02-25T17:30:01.777Z,1024.59
2019-02-25T17:35:02.950Z,1024.54
2019-02-25T17:40:04.426Z,1024.52
2019-02-25T17:45:02.563Z,1024.59
2019-02-25T17:50:02.248Z,1024.59
2019-02-25T17:55:03.999Z,1024.61
2019-02-25T18:00:01.785Z,1024.61
2019-02-25T18:05:01.287Z,1024.61
2019-02-25T18:10:03.449Z,1024.66
2019-02-25T18:15:03.072Z,1024.70
2019-02-25T18:20:01.342Z,1024.78
2019-02-25T18:25:04.217Z,1024.85
2019-02-25T18:30:01.929Z,1024.78
2019-02-25T18:35:01.298Z,1024.70
2019-02-25T18:40:01.792Z,1024.59
2019-02-25T18:45:01.483Z,1024.62
2019-02-25T18:50:01.236Z,1024.68
2019-02-25T18:55:02.785Z,1024.56
2019-02-25T19:00:03.569Z,1024.57
2019-02-25T19:05:02.089Z,1024.45
2019-02-25T19:10:01.235Z,1024.44
2019-02-25T19:15:03.142Z,1024.49
2019-02-25T19:20:01.535Z,1024.56
2019-02-25T19:25:05.480Z,1024.42
2019-02-25T19:30:02.999Z,1024.36
2019-02-25T19:35:04.031Z,1024.37
2019-02-25T19:40:01.172Z,1024.36
2019-02-25T19:45:05.295Z,1024.23
2019-02-25T19:50:02.059Z,1024.23
2019-02-25T19:55:01.173Z,1024.19
2019-02-25T20:00:02.953Z,1024.27
2019-02-25T20:05:01.654Z,1024.16
2019-02-25T20:10:01.412Z,1024.10
2019-02-25T20:15:01.319Z,1024.14
2019-02-25T20:20:02.960Z,1024.12
2019-02-25T20:25:02.543Z,1024.12
2019-02-25T20:30:03.155Z,1024.09
2019-02-25T20:35:02.609Z,1024.09
2019-02-25T20:40:01.375Z,1024.10
2019-02-25T20:45:02.765Z,1024.10
2019-02-25T20:50:03.181Z,1024.01
2019-02-25T20:55:03.647Z,1023.95
2019-02-25T21:00:01.148Z,1024.03
2019-02-25T21:05:01.249Z,1023.97
2019-02-25T21:10:03.384Z,1023.95
2019-02-25T21:15:01.124Z,1023.92
2019-02-25T21:20:02.850Z,1023.90
2019-02-25T21:25:03.087Z,1023.84
2019-02-25T21:30:03.796Z,1023.87
2019-02-25T21:35:02.547Z,1023.78
2019-02-25T21:40:02.911Z,1023.77
2019-02-25T21:45:02.366Z,1023.81
2019-02-25T21:50:03.847Z,1023.78
2019-02-25T21:55:02.553Z,1023.75
2019-02-25T22:00:02.947Z,1023.67
2019-02-25T22:05:01.146Z,1023.69
2019-02-25T22:10:01.181Z,1023.60
2019-02-25T22:15:01.823Z,1023.58
2019-02-25T22:20:02.635Z,1023.63
2019-02-25T22:25:04.065Z,1023.64
2019-02-25T22:30:02.954Z,1023.66
2019-02-25T22:35:02.757Z,1023.59
2019-02-25T22:40:01.952Z,1023.61
2019-02-25T22:45:01.245Z,1023.59
2019-02-25T22:50:01.614Z,1023.65
2019-02-25T22:55:01.456Z,1023.69
2019-02-25T23:00:05.718Z,1023.55
2019-02-25T23:05:02.279Z,1023.64
2019-02-25T23:10:02.187Z,1023.66
2019-02-25T23:15:03.873Z,1023.72
2019-02-25T23:20:03.458Z,1023.71
2019-02-25T23:25:01.299Z,1023.71
2019-02-25T23:30:01.139Z,1023.78
2019-02-25T23:35:01.771Z,1023.76
2019-02-25T23:40:04.488Z,1023.72
2019-02-25T23:45:01.280Z,1023.77
2019-02-25T23:50:03.985Z,1023.87
2019-02-25T23:55:01.856Z,1023.85
